sensor_id;sensor_type;location;lat;lon;timestamp;P1;durP1;ratioP1;P2;durP2;ratioP2
26050;SDS011;13825;53.496;10.020;2023-04-03T00:01:15;4.27;;;1.77;;
26050;SDS011;13825;53.496;10.020;2023-04-03T00:03:45;2.80;;;1.53;;
26050;SDS011;13825;53.496;10.020;2023-04-03T00:06:13;2.03;;;1.30;;
26050;SDS011;13825;53.496;10.020;2023-04-03T00:08:40;3.67;;;2.30;;
26050;SDS011;13825;53.496;10.020;2023-04-03T00:11:07;4.47;;;1.70;;
26050;SDS011;13825;53.496;10.020;2023-04-03T00:13:36;4.13;;;1.80;;
26050;SDS011;13825;53.496;10.020;2023-04-03T00:16:03;3.17;;;1.53;;
26050;SDS011;13825;53.496;10.020;2023-04-03T00:18:31;1.63;;;1.30;;
26050;SDS011;13825;53.496;10.020;2023-04-03T00:20:59;5.57;;;2.27;;
26050;SDS011;13825;53.496;10.020;2023-04-03T00:23:26;3.17;;;1.60;;
26050;SDS011;13825;53.496;10.020;2023-04-03T00:25:53;2.77;;;2.07;;
26050;SDS011;13825;53.496;10.020;2023-04-03T00:28:21;3.13;;;1.57;;
26050;SDS011;13825;53.496;10.020;2023-04-03T00:30:51;4.60;;;2.00;;
26050;SDS011;13825;53.496;10.020;2023-04-03T00:33:19;3.30;;;1.70;;
26050;SDS011;13825;53.496;10.020;2023-04-03T00:35:46;3.00;;;1.60;;
26050;SDS011;13825;53.496;10.020;2023-04-03T00:38:14;3.30;;;1.70;;
26050;SDS011;13825;53.496;10.020;2023-04-03T00:40:42;3.17;;;1.73;;
26050;SDS011;13825;53.496;10.020;2023-04-03T00:43:16;4.67;;;2.40;;
26050;SDS011;13825;53.496;10.020;2023-04-03T00:45:45;3.17;;;1.53;;
26050;SDS011;13825;53.496;10.020;2023-04-03T00:48:15;3.03;;;1.90;;
26050;SDS011;13825;53.496;10.020;2023-04-03T00:50:46;3.93;;;2.13;;
26050;SDS011;13825;53.496;10.020;2023-04-03T00:53:15;2.90;;;1.60;;
26050;SDS011;13825;53.496;10.020;2023-04-03T00:55:46;3.10;;;1.63;;
26050;SDS011;13825;53.496;10.020;2023-04-03T00:58:15;6.77;;;2.00;;
26050;SDS011;13825;53.496;10.020;2023-04-03T01:00:44;2.53;;;1.47;;
26050;SDS011;13825;53.496;10.020;2023-04-03T01:03:22;4.03;;;1.40;;
26050;SDS011;13825;53.496;10.020;2023-04-03T01:05:51;3.77;;;1.80;;
26050;SDS011;13825;53.496;10.020;2023-04-03T01:08:19;8.40;;;1.57;;
26050;SDS011;13825;53.496;10.020;2023-04-03T01:10:46;4.60;;;2.00;;
26050;SDS011;13825;53.496;10.020;2023-04-03T01:13:18;4.83;;;1.80;;
26050;SDS011;13825;53.496;10.020;2023-04-03T01:15:51;4.10;;;1.43;;
26050;SDS011;13825;53.496;10.020;2023-04-03T01:18:18;2.47;;;1.60;;
26050;SDS011;13825;53.496;10.020;2023-04-03T01:20:57;4.73;;;1.97;;
26050;SDS011;13825;53.496;10.020;2023-04-03T01:23:53;3.80;;;1.60;;
26050;SDS011;13825;53.496;10.020;2023-04-03T01:26:38;2.57;;;1.63;;
26050;SDS011;13825;53.496;10.020;2023-04-03T01:29:05;4.00;;;1.83;;
26050;SDS011;13825;53.496;10.020;2023-04-03T01:31:42;2.37;;;1.80;;
26050;SDS011;13825;53.496;10.020;2023-04-03T01:34:12;8.43;;;1.93;;
26050;SDS011;13825;53.496;10.020;2023-04-03T01:36:39;2.83;;;1.70;;
26050;SDS011;13825;53.496;10.020;2023-04-03T01:39:08;3.50;;;2.03;;
26050;SDS011;13825;53.496;10.020;2023-04-03T01:41:41;4.73;;;2.10;;
26050;SDS011;13825;53.496;10.020;2023-04-03T01:44:08;4.40;;;2.10;;
26050;SDS011;13825;53.496;10.020;2023-04-03T01:46:35;6.20;;;2.03;;
26050;SDS011;13825;53.496;10.020;2023-04-03T01:49:04;3.87;;;2.20;;
26050;SDS011;13825;53.496;10.020;2023-04-03T01:51:32;6.33;;;1.90;;
26050;SDS011;13825;53.496;10.020;2023-04-03T01:54:00;5.57;;;2.17;;
26050;SDS011;13825;53.496;10.020;2023-04-03T01:56:27;6.97;;;2.37;;
26050;SDS011;13825;53.496;10.020;2023-04-03T01:58:54;3.47;;;2.20;;
26050;SDS011;13825;53.496;10.020;2023-04-03T02:01:21;8.30;;;2.53;;
26050;SDS011;13825;53.496;10.020;2023-04-03T02:03:48;2.33;;;1.73;;
26050;SDS011;13825;53.496;10.020;2023-04-03T02:06:17;3.97;;;2.20;;
26050;SDS011;13825;53.496;10.020;2023-04-03T02:08:44;5.97;;;2.07;;
26050;SDS011;13825;53.496;10.020;2023-04-03T02:11:14;4.13;;;1.97;;
26050;SDS011;13825;53.496;10.020;2023-04-03T02:13:45;5.40;;;2.10;;
26050;SDS011;13825;53.496;10.020;2023-04-03T02:16:13;7.23;;;2.07;;
26050;SDS011;13825;53.496;10.020;2023-04-03T02:18:45;3.23;;;1.77;;
26050;SDS011;13825;53.496;10.020;2023-04-03T02:21:12;5.73;;;2.10;;
26050;SDS011;13825;53.496;10.020;2023-04-03T02:23:48;4.17;;;1.80;;
26050;SDS011;13825;53.496;10.020;2023-04-03T02:26:18;5.67;;;1.60;;
26050;SDS011;13825;53.496;10.020;2023-04-03T02:28:50;4.30;;;1.73;;
26050;SDS011;13825;53.496;10.020;2023-04-03T02:31:17;5.77;;;1.93;;
26050;SDS011;13825;53.496;10.020;2023-04-03T02:33:49;3.73;;;1.87;;
26050;SDS011;13825;53.496;10.020;2023-04-03T02:36:19;3.23;;;1.70;;
26050;SDS011;13825;53.496;10.020;2023-04-03T02:38:54;4.73;;;1.93;;
26050;SDS011;13825;53.496;10.020;2023-04-03T02:41:22;4.03;;;2.13;;
26050;SDS011;13825;53.496;10.020;2023-04-03T02:43:59;5.47;;;2.10;;
26050;SDS011;13825;53.496;10.020;2023-04-03T02:46:29;3.30;;;1.80;;
26050;SDS011;13825;53.496;10.020;2023-04-03T02:48:58;4.73;;;2.10;;
26050;SDS011;13825;53.496;10.020;2023-04-03T02:51:26;5.83;;;2.07;;
26050;SDS011;13825;53.496;10.020;2023-04-03T02:53:54;3.60;;;2.10;;
26050;SDS011;13825;53.496;10.020;2023-04-03T02:56:21;2.23;;;1.53;;
26050;SDS011;13825;53.496;10.020;2023-04-03T02:58:51;4.77;;;2.00;;
26050;SDS011;13825;53.496;10.020;2023-04-03T03:01:20;6.37;;;2.50;;
26050;SDS011;13825;53.496;10.020;2023-04-03T03:03:53;6.73;;;2.00;;
26050;SDS011;13825;53.496;10.020;2023-04-03T03:06:23;4.50;;;1.90;;
26050;SDS011;13825;53.496;10.020;2023-04-03T03:08:56;4.57;;;1.67;;
26050;SDS011;13825;53.496;10.020;2023-04-03T03:11:30;3.33;;;1.70;;
26050;SDS011;13825;53.496;10.020;2023-04-03T03:13:58;5.73;;;1.90;;
26050;SDS011;13825;53.496;10.020;2023-04-03T03:16:25;4.80;;;1.63;;
26050;SDS011;13825;53.496;10.020;2023-04-03T03:18:52;4.40;;;1.87;;
26050;SDS011;13825;53.496;10.020;2023-04-03T03:21:20;2.80;;;1.67;;
26050;SDS011;13825;53.496;10.020;2023-04-03T03:23:47;2.47;;;1.87;;
26050;SDS011;13825;53.496;10.020;2023-04-03T03:26:16;6.97;;;1.73;;
26050;SDS011;13825;53.496;10.020;2023-04-03T03:28:44;4.43;;;1.67;;
26050;SDS011;13825;53.496;10.020;2023-04-03T03:31:11;3.17;;;1.50;;
26050;SDS011;13825;53.496;10.020;2023-04-03T03:33:40;1.70;;;1.30;;
26050;SDS011;13825;53.496;10.020;2023-04-03T03:36:07;4.63;;;1.93;;
26050;SDS011;13825;53.496;10.020;2023-04-03T03:38:34;3.30;;;1.50;;
26050;SDS011;13825;53.496;10.020;2023-04-03T03:41:01;3.40;;;2.00;;
26050;SDS011;13825;53.496;10.020;2023-04-03T03:43:30;6.93;;;2.27;;
26050;SDS011;13825;53.496;10.020;2023-04-03T03:45:57;3.43;;;1.60;;
26050;SDS011;13825;53.496;10.020;2023-04-03T03:48:25;4.37;;;1.60;;
26050;SDS011;13825;53.496;10.020;2023-04-03T03:50:57;2.00;;;1.63;;
26050;SDS011;13825;53.496;10.020;2023-04-03T03:53:24;4.03;;;1.77;;
26050;SDS011;13825;53.496;10.020;2023-04-03T03:55:52;3.70;;;1.50;;
26050;SDS011;13825;53.496;10.020;2023-04-03T03:58:19;7.40;;;2.13;;
26050;SDS011;13825;53.496;10.020;2023-04-03T04:00:48;8.87;;;1.97;;
26050;SDS011;13825;53.496;10.020;2023-04-03T04:03:16;4.33;;;2.47;;
26050;SDS011;13825;53.496;10.020;2023-04-03T04:05:43;2.97;;;2.13;;
26050;SDS011;13825;53.496;10.020;2023-04-03T04:08:11;6.30;;;2.03;;
26050;SDS011;13825;53.496;10.020;2023-04-03T04:10:38;4.30;;;2.27;;
26050;SDS011;13825;53.496;10.020;2023-04-03T04:13:08;7.20;;;2.00;;
26050;SDS011;13825;53.496;10.020;2023-04-03T04:15:36;4.33;;;2.10;;
26050;SDS011;13825;53.496;10.020;2023-04-03T04:18:05;3.97;;;2.33;;
26050;SDS011;13825;53.496;10.020;2023-04-03T04:20:32;5.13;;;2.17;;
26050;SDS011;13825;53.496;10.020;2023-04-03T04:22:59;5.47;;;2.87;;
26050;SDS011;13825;53.496;10.020;2023-04-03T04:25:36;4.73;;;2.67;;
26050;SDS011;13825;53.496;10.020;2023-04-03T04:28:07;5.97;;;2.87;;
26050;SDS011;13825;53.496;10.020;2023-04-03T04:30:34;11.50;;;4.07;;
26050;SDS011;13825;53.496;10.020;2023-04-03T04:33:01;11.70;;;4.83;;
26050;SDS011;13825;53.496;10.020;2023-04-03T04:35:34;10.87;;;4.30;;
26050;SDS011;13825;53.496;10.020;2023-04-03T04:38:02;11.40;;;5.17;;
26050;SDS011;13825;53.496;10.020;2023-04-03T04:40:30;11.90;;;5.57;;
26050;SDS011;13825;53.496;10.020;2023-04-03T04:43:02;11.63;;;5.10;;
26050;SDS011;13825;53.496;10.020;2023-04-03T04:45:30;13.13;;;6.27;;
26050;SDS011;13825;53.496;10.020;2023-04-03T04:47:57;12.30;;;6.70;;
26050;SDS011;13825;53.496;10.020;2023-04-03T04:50:26;10.30;;;5.57;;
26050;SDS011;13825;53.496;10.020;2023-04-03T04:52:55;13.97;;;5.83;;
26050;SDS011;13825;53.496;10.020;2023-04-03T04:55:27;16.03;;;5.83;;
26050;SDS011;13825;53.496;10.020;2023-04-03T04:57:59;10.63;;;5.13;;
26050;SDS011;13825;53.496;10.020;2023-04-03T05:00:26;13.33;;;5.30;;
26050;SDS011;13825;53.496;10.020;2023-04-03T05:02:54;8.67;;;4.23;;
26050;SDS011;13825;53.496;10.020;2023-04-03T05:05:21;11.07;;;4.03;;
26050;SDS011;13825;53.496;10.020;2023-04-03T05:07:48;9.93;;;4.27;;
26050;SDS011;13825;53.496;10.020;2023-04-03T05:10:17;10.83;;;4.40;;
26050;SDS011;13825;53.496;10.020;2023-04-03T05:12:45;9.60;;;3.83;;
26050;SDS011;13825;53.496;10.020;2023-04-03T05:15:20;4.63;;;3.00;;
26050;SDS011;13825;53.496;10.020;2023-04-03T05:17:47;5.97;;;3.30;;
26050;SDS011;13825;53.496;10.020;2023-04-03T05:20:17;5.47;;;2.80;;
26050;SDS011;13825;53.496;10.020;2023-04-03T05:22:44;4.37;;;2.70;;
26050;SDS011;13825;53.496;10.020;2023-04-03T05:25:14;6.87;;;3.23;;
26050;SDS011;13825;53.496;10.020;2023-04-03T05:27:45;8.27;;;2.70;;
26050;SDS011;13825;53.496;10.020;2023-04-03T05:30:12;6.37;;;3.13;;
26050;SDS011;13825;53.496;10.020;2023-04-03T05:32:43;4.97;;;3.27;;
26050;SDS011;13825;53.496;10.020;2023-04-03T05:35:10;7.20;;;2.70;;
26050;SDS011;13825;53.496;10.020;2023-04-03T05:37:41;7.60;;;3.20;;
26050;SDS011;13825;53.496;10.020;2023-04-03T05:40:11;8.73;;;3.53;;
26050;SDS011;13825;53.496;10.020;2023-04-03T05:42:42;4.23;;;2.90;;
26050;SDS011;13825;53.496;10.020;2023-04-03T05:45:18;11.10;;;3.57;;
26050;SDS011;13825;53.496;10.020;2023-04-03T05:47:53;6.73;;;3.07;;
26050;SDS011;13825;53.496;10.020;2023-04-03T05:50:23;4.10;;;2.57;;
26050;SDS011;13825;53.496;10.020;2023-04-03T05:52:51;3.60;;;2.47;;
26050;SDS011;13825;53.496;10.020;2023-04-03T05:55:21;5.63;;;3.13;;
26050;SDS011;13825;53.496;10.020;2023-04-03T05:57:51;4.97;;;3.27;;
26050;SDS011;13825;53.496;10.020;2023-04-03T06:00:18;4.23;;;2.50;;
26050;SDS011;13825;53.496;10.020;2023-04-03T06:02:46;5.57;;;2.50;;
26050;SDS011;13825;53.496;10.020;2023-04-03T06:05:13;5.10;;;2.70;;
26050;SDS011;13825;53.496;10.020;2023-04-03T06:07:40;4.53;;;2.63;;
26050;SDS011;13825;53.496;10.020;2023-04-03T06:10:11;4.93;;;3.10;;
26050;SDS011;13825;53.496;10.020;2023-04-03T06:12:39;4.77;;;2.20;;
26050;SDS011;13825;53.496;10.020;2023-04-03T06:15:08;7.17;;;2.47;;
26050;SDS011;13825;53.496;10.020;2023-04-03T06:17:36;4.70;;;2.13;;
26050;SDS011;13825;53.496;10.020;2023-04-03T06:20:04;6.03;;;2.53;;
26050;SDS011;13825;53.496;10.020;2023-04-03T06:22:35;6.27;;;2.87;;
26050;SDS011;13825;53.496;10.020;2023-04-03T06:25:02;4.20;;;2.77;;
26050;SDS011;13825;53.496;10.020;2023-04-03T06:27:29;3.57;;;1.90;;
26050;SDS011;13825;53.496;10.020;2023-04-03T06:29:57;4.50;;;2.53;;
26050;SDS011;13825;53.496;10.020;2023-04-03T06:32:25;4.47;;;2.23;;
26050;SDS011;13825;53.496;10.020;2023-04-03T06:34:53;5.43;;;2.50;;
26050;SDS011;13825;53.496;10.020;2023-04-03T06:37:21;4.60;;;2.40;;
26050;SDS011;13825;53.496;10.020;2023-04-03T06:39:51;7.07;;;2.47;;
26050;SDS011;13825;53.496;10.020;2023-04-03T06:42:18;4.93;;;2.30;;
26050;SDS011;13825;53.496;10.020;2023-04-03T06:44:48;5.63;;;2.20;;
26050;SDS011;13825;53.496;10.020;2023-04-03T06:47:16;5.33;;;2.23;;
26050;SDS011;13825;53.496;10.020;2023-04-03T06:49:47;4.53;;;2.37;;
26050;SDS011;13825;53.496;10.020;2023-04-03T06:52:14;4.80;;;2.53;;
26050;SDS011;13825;53.496;10.020;2023-04-03T06:54:42;5.10;;;1.77;;
26050;SDS011;13825;53.496;10.020;2023-04-03T06:57:09;1.73;;;1.63;;
26050;SDS011;13825;53.496;10.020;2023-04-03T06:59:36;5.07;;;2.10;;
26050;SDS011;13825;53.496;10.020;2023-04-03T07:02:04;4.47;;;2.10;;
26050;SDS011;13825;53.496;10.020;2023-04-03T07:04:31;2.93;;;2.13;;
26050;SDS011;13825;53.496;10.020;2023-04-03T07:07:06;4.50;;;1.87;;
26050;SDS011;13825;53.496;10.020;2023-04-03T07:09:37;3.17;;;1.80;;
26050;SDS011;13825;53.496;10.020;2023-04-03T07:12:06;3.30;;;2.00;;
26050;SDS011;13825;53.496;10.020;2023-04-03T07:14:33;2.97;;;1.83;;
26050;SDS011;13825;53.496;10.020;2023-04-03T07:17:00;6.13;;;2.10;;
26050;SDS011;13825;53.496;10.020;2023-04-03T07:19:32;4.40;;;1.80;;
26050;SDS011;13825;53.496;10.020;2023-04-03T07:21:59;2.60;;;1.50;;
26050;SDS011;13825;53.496;10.020;2023-04-03T07:24:28;3.37;;;1.43;;
26050;SDS011;13825;53.496;10.020;2023-04-03T07:26:55;1.63;;;1.17;;
26050;SDS011;13825;53.496;10.020;2023-04-03T07:29:23;3.97;;;1.40;;
26050;SDS011;13825;53.496;10.020;2023-04-03T07:31:50;3.97;;;2.17;;
26050;SDS011;13825;53.496;10.020;2023-04-03T07:34:17;1.43;;;1.13;;
26050;SDS011;13825;53.496;10.020;2023-04-03T07:36:46;5.00;;;1.20;;
26050;SDS011;13825;53.496;10.020;2023-04-03T07:39:22;1.37;;;1.27;;
26050;SDS011;13825;53.496;10.020;2023-04-03T07:41:52;1.27;;;0.70;;
26050;SDS011;13825;53.496;10.020;2023-04-03T07:44:20;3.13;;;2.13;;
26050;SDS011;13825;53.496;10.020;2023-04-03T07:46:51;1.03;;;0.90;;
26050;SDS011;13825;53.496;10.020;2023-04-03T07:49:20;5.33;;;1.53;;
26050;SDS011;13825;53.496;10.020;2023-04-03T07:51:51;3.40;;;1.10;;
26050;SDS011;13825;53.496;10.020;2023-04-03T07:54:18;1.87;;;1.20;;
26050;SDS011;13825;53.496;10.020;2023-04-03T07:56:45;1.33;;;1.17;;
26050;SDS011;13825;53.496;10.020;2023-04-03T07:59:14;3.53;;;1.10;;
26050;SDS011;13825;53.496;10.020;2023-04-03T08:01:42;2.10;;;1.30;;
26050;SDS011;13825;53.496;10.020;2023-04-03T08:04:15;2.30;;;0.80;;
26050;SDS011;13825;53.496;10.020;2023-04-03T08:06:45;2.57;;;1.10;;
26050;SDS011;13825;53.496;10.020;2023-04-03T08:09:13;1.20;;;0.90;;
26050;SDS011;13825;53.496;10.020;2023-04-03T08:11:40;2.17;;;1.03;;
26050;SDS011;13825;53.496;10.020;2023-04-03T08:14:08;2.83;;;1.10;;
26050;SDS011;13825;53.496;10.020;2023-04-03T08:16:42;2.57;;;1.47;;
26050;SDS011;13825;53.496;10.020;2023-04-03T08:19:19;3.43;;;1.60;;
26050;SDS011;13825;53.496;10.020;2023-04-03T18:55:21;2.53;;;1.63;;
26050;SDS011;13825;53.496;10.020;2023-04-03T18:57:52;2.63;;;1.50;;
26050;SDS011;13825;53.496;10.020;2023-04-03T19:00:20;3.23;;;1.60;;
26050;SDS011;13825;53.496;10.020;2023-04-03T19:02:51;5.10;;;2.03;;
26050;SDS011;13825;53.496;10.020;2023-04-03T19:05:21;1.83;;;1.50;;
26050;SDS011;13825;53.496;10.020;2023-04-03T19:07:51;3.50;;;1.70;;
26050;SDS011;13825;53.496;10.020;2023-04-03T19:10:22;2.83;;;2.10;;
26050;SDS011;13825;53.496;10.020;2023-04-03T19:12:51;3.83;;;1.80;;
26050;SDS011;13825;53.496;10.020;2023-04-03T19:15:19;4.13;;;1.50;;
26050;SDS011;13825;53.496;10.020;2023-04-03T19:17:48;3.77;;;1.60;;
26050;SDS011;13825;53.496;10.020;2023-04-03T19:20:17;2.40;;;1.33;;
26050;SDS011;13825;53.496;10.020;2023-04-03T19:22:47;2.40;;;1.83;;
26050;SDS011;13825;53.496;10.020;2023-04-03T19:25:15;2.23;;;1.20;;
26050;SDS011;13825;53.496;10.020;2023-04-03T19:27:44;3.80;;;1.50;;
26050;SDS011;13825;53.496;10.020;2023-04-03T19:30:20;2.20;;;1.80;;
26050;SDS011;13825;53.496;10.020;2023-04-03T19:32:53;5.60;;;1.60;;
26050;SDS011;13825;53.496;10.020;2023-04-03T19:35:25;3.03;;;1.70;;
26050;SDS011;13825;53.496;10.020;2023-04-03T19:37:57;2.30;;;2.10;;
26050;SDS011;13825;53.496;10.020;2023-04-03T19:40:40;3.13;;;2.00;;
26050;SDS011;13825;53.496;10.020;2023-04-03T19:43:11;5.63;;;2.27;;
26050;SDS011;13825;53.496;10.020;2023-04-03T19:45:43;3.93;;;2.53;;
26050;SDS011;13825;53.496;10.020;2023-04-03T19:48:19;3.10;;;2.00;;
26050;SDS011;13825;53.496;10.020;2023-04-03T19:50:50;3.33;;;1.83;;
26050;SDS011;13825;53.496;10.020;2023-04-03T19:53:18;3.47;;;1.80;;
26050;SDS011;13825;53.496;10.020;2023-04-03T19:55:56;4.07;;;2.37;;
26050;SDS011;13825;53.496;10.020;2023-04-03T19:58:36;4.83;;;2.20;;
26050;SDS011;13825;53.496;10.020;2023-04-03T20:01:08;2.80;;;1.80;;
26050;SDS011;13825;53.496;10.020;2023-04-03T20:03:38;4.00;;;1.60;;
26050;SDS011;13825;53.496;10.020;2023-04-03T20:09:29;4.27;;;2.03;;
26050;SDS011;13825;53.496;10.020;2023-04-03T20:11:58;2.97;;;1.87;;
26050;SDS011;13825;53.496;10.020;2023-04-03T20:14:27;2.40;;;1.97;;
26050;SDS011;13825;53.496;10.020;2023-04-03T20:16:55;7.70;;;2.90;;
26050;SDS011;13825;53.496;10.020;2023-04-03T20:19:23;4.10;;;3.23;;
26050;SDS011;13825;53.496;10.020;2023-04-03T20:21:51;5.80;;;3.30;;
26050;SDS011;13825;53.496;10.020;2023-04-03T20:24:22;6.57;;;3.20;;
26050;SDS011;13825;53.496;10.020;2023-04-03T20:26:52;4.30;;;3.13;;
26050;SDS011;13825;53.496;10.020;2023-04-03T20:29:21;10.13;;;5.40;;
26050;SDS011;13825;53.496;10.020;2023-04-03T20:31:53;7.13;;;4.10;;
26050;SDS011;13825;53.496;10.020;2023-04-03T20:34:23;5.47;;;3.97;;
26050;SDS011;13825;53.496;10.020;2023-04-03T20:36:50;7.43;;;3.53;;
26050;SDS011;13825;53.496;10.020;2023-04-03T20:39:26;3.07;;;2.87;;
26050;SDS011;13825;53.496;10.020;2023-04-03T20:42:03;4.93;;;3.17;;
26050;SDS011;13825;53.496;10.020;2023-04-03T20:44:30;6.00;;;3.37;;
26050;SDS011;13825;53.496;10.020;2023-04-03T20:52:32;4.33;;;2.80;;
26050;SDS011;13825;53.496;10.020;2023-04-03T20:55:01;4.20;;;2.90;;
26050;SDS011;13825;53.496;10.020;2023-04-03T20:57:33;7.33;;;3.80;;
26050;SDS011;13825;53.496;10.020;2023-04-03T21:00:01;7.87;;;4.33;;
26050;SDS011;13825;53.496;10.020;2023-04-03T21:02:42;7.40;;;4.37;;
26050;SDS011;13825;53.496;10.020;2023-04-03T21:05:12;6.27;;;3.20;;
26050;SDS011;13825;53.496;10.020;2023-04-03T21:19:31;3.83;;;1.63;;
26050;SDS011;13825;53.496;10.020;2023-04-03T21:21:59;6.07;;;1.77;;
26050;SDS011;13825;53.496;10.020;2023-04-03T21:24:40;4.77;;;1.60;;
26050;SDS011;13825;53.496;10.020;2023-04-03T21:27:09;5.00;;;1.70;;
26050;SDS011;13825;53.496;10.020;2023-04-03T21:29:39;5.67;;;2.33;;
26050;SDS011;13825;53.496;10.020;2023-04-03T21:32:07;6.13;;;1.93;;
26050;SDS011;13825;53.496;10.020;2023-04-03T21:34:36;2.57;;;1.43;;
26050;SDS011;13825;53.496;10.020;2023-04-03T21:37:04;2.83;;;1.43;;
26050;SDS011;13825;53.496;10.020;2023-04-03T21:39:33;2.60;;;1.37;;
26050;SDS011;13825;53.496;10.020;2023-04-03T21:42:00;1.43;;;1.33;;
26050;SDS011;13825;53.496;10.020;2023-04-03T21:44:42;3.50;;;2.03;;
26050;SDS011;13825;53.496;10.020;2023-04-03T21:47:09;2.43;;;1.70;;
26050;SDS011;13825;53.496;10.020;2023-04-03T21:49:43;2.93;;;1.70;;
26050;SDS011;13825;53.496;10.020;2023-04-03T21:52:12;3.50;;;1.70;;
26050;SDS011;13825;53.496;10.020;2023-04-03T21:54:40;2.87;;;1.83;;
26050;SDS011;13825;53.496;10.020;2023-04-03T21:57:11;2.70;;;1.70;;
26050;SDS011;13825;53.496;10.020;2023-04-03T21:59:39;5.90;;;2.20;;
26050;SDS011;13825;53.496;10.020;2023-04-03T22:02:07;3.77;;;1.70;;
26050;SDS011;13825;53.496;10.020;2023-04-03T22:04:35;2.40;;;2.03;;
26050;SDS011;13825;53.496;10.020;2023-04-03T22:07:03;2.40;;;1.40;;
26050;SDS011;13825;53.496;10.020;2023-04-03T22:09:31;4.50;;;1.70;;
26050;SDS011;13825;53.496;10.020;2023-04-03T22:11:59;3.37;;;1.63;;
26050;SDS011;13825;53.496;10.020;2023-04-03T22:14:27;4.90;;;1.70;;
26050;SDS011;13825;53.496;10.020;2023-04-03T22:16:55;4.07;;;1.40;;
26050;SDS011;13825;53.496;10.020;2023-04-03T22:19:23;2.37;;;1.37;;
26050;SDS011;13825;53.496;10.020;2023-04-03T22:21:55;3.20;;;1.70;;
26050;SDS011;13825;53.496;10.020;2023-04-03T22:24:29;3.00;;;1.50;;
26050;SDS011;13825;53.496;10.020;2023-04-03T22:27:00;3.33;;;1.60;;
26050;SDS011;13825;53.496;10.020;2023-04-03T22:29:30;2.47;;;1.27;;
26050;SDS011;13825;53.496;10.020;2023-04-03T22:31:58;4.33;;;1.63;;
26050;SDS011;13825;53.496;10.020;2023-04-03T22:34:28;3.33;;;1.40;;
26050;SDS011;13825;53.496;10.020;2023-04-03T22:36:56;4.17;;;1.40;;
26050;SDS011;13825;53.496;10.020;2023-04-03T22:39:26;3.50;;;1.93;;
26050;SDS011;13825;53.496;10.020;2023-04-03T22:41:55;5.10;;;1.90;;
26050;SDS011;13825;53.496;10.020;2023-04-03T22:44:24;4.50;;;2.20;;
26050;SDS011;13825;53.496;10.020;2023-04-03T22:47:13;2.40;;;1.77;;
26050;SDS011;13825;53.496;10.020;2023-04-03T22:49:41;4.80;;;2.10;;
26050;SDS011;13825;53.496;10.020;2023-04-03T22:52:10;4.43;;;1.53;;
26050;SDS011;13825;53.496;10.020;2023-04-03T22:54:42;2.97;;;1.50;;
26050;SDS011;13825;53.496;10.020;2023-04-03T22:57:09;2.53;;;1.57;;
26050;SDS011;13825;53.496;10.020;2023-04-03T22:59:37;1.80;;;1.70;;
26050;SDS011;13825;53.496;10.020;2023-04-03T23:02:04;3.37;;;1.20;;
26050;SDS011;13825;53.496;10.020;2023-04-03T23:04:31;4.57;;;1.70;;
26050;SDS011;13825;53.496;10.020;2023-04-03T23:06:58;2.20;;;1.40;;
26050;SDS011;13825;53.496;10.020;2023-04-03T23:09:29;3.30;;;1.50;;
26050;SDS011;13825;53.496;10.020;2023-04-03T23:12:03;2.47;;;1.40;;
26050;SDS011;13825;53.496;10.020;2023-04-03T23:14:33;2.13;;;1.70;;
26050;SDS011;13825;53.496;10.020;2023-04-03T23:17:03;3.33;;;1.87;;
26050;SDS011;13825;53.496;10.020;2023-04-03T23:19:31;2.03;;;1.60;;
26050;SDS011;13825;53.496;10.020;2023-04-03T23:21:59;1.87;;;1.63;;
26050;SDS011;13825;53.496;10.020;2023-04-03T23:24:27;4.80;;;1.70;;
26050;SDS011;13825;53.496;10.020;2023-04-03T23:26:57;4.37;;;1.73;;
26050;SDS011;13825;53.496;10.020;2023-04-03T23:29:25;1.90;;;1.60;;
26050;SDS011;13825;53.496;10.020;2023-04-03T23:31:57;2.07;;;1.63;;
26050;SDS011;13825;53.496;10.020;2023-04-03T23:34:27;3.93;;;1.50;;
26050;SDS011;13825;53.496;10.020;2023-04-03T23:36:57;4.27;;;1.60;;
26050;SDS011;13825;53.496;10.020;2023-04-03T23:39:25;2.57;;;1.50;;
26050;SDS011;13825;53.496;10.020;2023-04-03T23:41:52;2.47;;;1.50;;
26050;SDS011;13825;53.496;10.020;2023-04-03T23:44:35;4.07;;;1.97;;
26050;SDS011;13825;53.496;10.020;2023-04-03T23:47:02;2.57;;;1.70;;
26050;SDS011;13825;53.496;10.020;2023-04-03T23:49:29;1.57;;;1.47;;
26050;SDS011;13825;53.496;10.020;2023-04-03T23:51:57;1.63;;;1.53;;
26050;SDS011;13825;53.496;10.020;2023-04-03T23:54:25;2.50;;;2.00;;
26050;SDS011;13825;53.496;10.020;2023-04-03T23:56:54;2.23;;;1.40;;
26050;SDS011;13825;53.496;10.020;2023-04-03T23:59:25;1.70;;;1.60;;
